sensor_id;sensor_type;location;lat;lon;timestamp;P1;durP1;ratioP1;P2;durP2;ratioP2
3427;SDS011;1727;42.624;23.406;2022-11-21T00:00:05;7.33;;;6.60;;
3427;SDS011;1727;42.624;23.406;2022-11-21T00:02:33;9.10;;;6.90;;
3427;SDS011;1727;42.624;23.406;2022-11-21T00:04:59;5.90;;;5.30;;
3427;SDS011;1727;42.624;23.406;2022-11-21T00:07:26;8.13;;;5.97;;
3427;SDS011;1727;42.624;23.406;2022-11-21T00:09:53;8.07;;;6.47;;
3427;SDS011;1727;42.624;23.406;2022-11-21T00:12:20;6.07;;;5.47;;
3427;SDS011;1727;42.624;23.406;2022-11-21T00:14:48;10.63;;;6.90;;
3427;SDS011;1727;42.624;23.406;2022-11-21T00:17:15;8.40;;;7.10;;
3427;SDS011;1727;42.624;23.406;2022-11-21T00:19:42;6.10;;;5.50;;
3427;SDS011;1727;42.624;23.406;2022-11-21T00:22:09;5.10;;;4.10;;
3427;SDS011;1727;42.624;23.406;2022-11-21T00:24:36;8.93;;;6.20;;
3427;SDS011;1727;42.624;23.406;2022-11-21T00:27:03;5.63;;;4.97;;
3427;SDS011;1727;42.624;23.406;2022-11-21T00:29:30;4.80;;;4.30;;
3427;SDS011;1727;42.624;23.406;2022-11-21T00:31:58;9.67;;;5.50;;
3427;SDS011;1727;42.624;23.406;2022-11-21T00:34:25;5.60;;;4.77;;
3427;SDS011;1727;42.624;23.406;2022-11-21T00:36:52;6.40;;;5.30;;
3427;SDS011;1727;42.624;23.406;2022-11-21T00:39:19;7.57;;;6.40;;
3427;SDS011;1727;42.624;23.406;2022-11-21T00:41:46;8.20;;;7.13;;
3427;SDS011;1727;42.624;23.406;2022-11-21T00:44:13;5.90;;;5.30;;
3427;SDS011;1727;42.624;23.406;2022-11-21T00:46:39;8.00;;;5.60;;
3427;SDS011;1727;42.624;23.406;2022-11-21T00:49:08;7.30;;;4.90;;
3427;SDS011;1727;42.624;23.406;2022-11-21T00:51:34;8.03;;;5.50;;
3427;SDS011;1727;42.624;23.406;2022-11-21T00:54:01;6.20;;;5.37;;
3427;SDS011;1727;42.624;23.406;2022-11-21T00:56:28;4.33;;;3.93;;
3427;SDS011;1727;42.624;23.406;2022-11-21T00:58:55;9.60;;;4.97;;
3427;SDS011;1727;42.624;23.406;2022-11-21T01:01:21;5.77;;;5.00;;
3427;SDS011;1727;42.624;23.406;2022-11-21T01:03:48;6.60;;;5.37;;
3427;SDS011;1727;42.624;23.406;2022-11-21T01:06:16;7.50;;;5.53;;
3427;SDS011;1727;42.624;23.406;2022-11-21T01:08:43;4.90;;;4.30;;
3427;SDS011;1727;42.624;23.406;2022-11-21T01:11:12;10.47;;;4.90;;
3427;SDS011;1727;42.624;23.406;2022-11-21T01:13:40;7.40;;;4.80;;
3427;SDS011;1727;42.624;23.406;2022-11-21T01:16:08;6.97;;;5.50;;
3427;SDS011;1727;42.624;23.406;2022-11-21T01:18:36;10.07;;;7.13;;
3427;SDS011;1727;42.624;23.406;2022-11-21T01:21:04;13.57;;;6.70;;
3427;SDS011;1727;42.624;23.406;2022-11-21T01:23:33;6.50;;;4.67;;
3427;SDS011;1727;42.624;23.406;2022-11-21T01:26:00;6.00;;;4.37;;
3427;SDS011;1727;42.624;23.406;2022-11-21T01:28:27;3.97;;;2.60;;
3427;SDS011;1727;42.624;23.406;2022-11-21T01:30:54;4.50;;;3.27;;
3427;SDS011;1727;42.624;23.406;2022-11-21T01:33:21;1.90;;;1.73;;
3427;SDS011;1727;42.624;23.406;2022-11-21T01:35:48;2.23;;;2.07;;
3427;SDS011;1727;42.624;23.406;2022-11-21T01:38:15;2.90;;;2.70;;
3427;SDS011;1727;42.624;23.406;2022-11-21T01:40:43;1.97;;;1.77;;
3427;SDS011;1727;42.624;23.406;2022-11-21T01:43:10;2.43;;;1.83;;
3427;SDS011;1727;42.624;23.406;2022-11-21T01:45:54;1.30;;;1.20;;
3427;SDS011;1727;42.624;23.406;2022-11-21T01:48:24;8.80;;;1.87;;
3427;SDS011;1727;42.624;23.406;2022-11-21T01:50:53;4.60;;;2.13;;
3427;SDS011;1727;42.624;23.406;2022-11-21T01:53:22;1.30;;;1.20;;
3427;SDS011;1727;42.624;23.406;2022-11-21T01:55:51;1.30;;;1.20;;
3427;SDS011;1727;42.624;23.406;2022-11-21T01:58:19;8.93;;;1.40;;
3427;SDS011;1727;42.624;23.406;2022-11-21T02:00:46;2.77;;;1.40;;
3427;SDS011;1727;42.624;23.406;2022-11-21T02:03:15;2.03;;;1.20;;
3427;SDS011;1727;42.624;23.406;2022-11-21T02:05:46;1.60;;;1.50;;
3427;SDS011;1727;42.624;23.406;2022-11-21T02:08:15;1.20;;;1.10;;
3427;SDS011;1727;42.624;23.406;2022-11-21T02:10:46;1.80;;;1.60;;
3427;SDS011;1727;42.624;23.406;2022-11-21T02:13:21;1.60;;;1.30;;
3427;SDS011;1727;42.624;23.406;2022-11-21T02:15:48;1.40;;;1.30;;
3427;SDS011;1727;42.624;23.406;2022-11-21T02:18:14;2.13;;;1.63;;
3427;SDS011;1727;42.624;23.406;2022-11-21T02:20:42;2.33;;;1.90;;
3427;SDS011;1727;42.624;23.406;2022-11-21T02:23:12;2.33;;;1.40;;
3427;SDS011;1727;42.624;23.406;2022-11-21T02:25:45;5.67;;;1.50;;
3427;SDS011;1727;42.624;23.406;2022-11-21T02:28:13;7.50;;;1.60;;
3427;SDS011;1727;42.624;23.406;2022-11-21T02:30:41;1.70;;;1.50;;
3427;SDS011;1727;42.624;23.406;2022-11-21T02:33:09;2.93;;;1.60;;
3427;SDS011;1727;42.624;23.406;2022-11-21T02:35:37;4.23;;;1.40;;
3427;SDS011;1727;42.624;23.406;2022-11-21T02:38:05;2.97;;;1.90;;
3427;SDS011;1727;42.624;23.406;2022-11-21T02:40:41;3.40;;;1.60;;
3427;SDS011;1727;42.624;23.406;2022-11-21T02:43:15;3.83;;;2.17;;
3427;SDS011;1727;42.624;23.406;2022-11-21T02:45:45;5.80;;;2.07;;
3427;SDS011;1727;42.624;23.406;2022-11-21T02:48:12;2.80;;;1.77;;
3427;SDS011;1727;42.624;23.406;2022-11-21T02:50:40;5.50;;;2.47;;
3427;SDS011;1727;42.624;23.406;2022-11-21T02:53:08;2.20;;;2.00;;
3427;SDS011;1727;42.624;23.406;2022-11-21T02:55:37;4.47;;;1.80;;
3427;SDS011;1727;42.624;23.406;2022-11-21T02:58:04;1.87;;;1.67;;
3427;SDS011;1727;42.624;23.406;2022-11-21T03:00:33;2.80;;;1.53;;
3427;SDS011;1727;42.624;23.406;2022-11-21T03:03:01;8.20;;;1.90;;
3427;SDS011;1727;42.624;23.406;2022-11-21T03:05:29;2.33;;;1.70;;
3427;SDS011;1727;42.624;23.406;2022-11-21T03:07:56;7.40;;;2.63;;
3427;SDS011;1727;42.624;23.406;2022-11-21T03:10:23;3.23;;;1.77;;
3427;SDS011;1727;42.624;23.406;2022-11-21T03:12:50;4.23;;;1.80;;
3427;SDS011;1727;42.624;23.406;2022-11-21T03:15:25;2.13;;;1.70;;
3427;SDS011;1727;42.624;23.406;2022-11-21T03:17:54;4.20;;;1.90;;
3427;SDS011;1727;42.624;23.406;2022-11-21T03:20:21;4.60;;;1.57;;
3427;SDS011;1727;42.624;23.406;2022-11-21T03:22:48;5.90;;;2.20;;
3427;SDS011;1727;42.624;23.406;2022-11-21T03:25:15;7.90;;;1.80;;
3427;SDS011;1727;42.624;23.406;2022-11-21T03:27:42;3.70;;;2.00;;
3427;SDS011;1727;42.624;23.406;2022-11-21T03:30:09;3.40;;;1.63;;
3427;SDS011;1727;42.624;23.406;2022-11-21T03:32:37;3.10;;;1.50;;
3427;SDS011;1727;42.624;23.406;2022-11-21T03:35:06;5.63;;;1.80;;
3427;SDS011;1727;42.624;23.406;2022-11-21T03:37:33;5.53;;;2.53;;
3427;SDS011;1727;42.624;23.406;2022-11-21T03:40:00;3.10;;;1.43;;
3427;SDS011;1727;42.624;23.406;2022-11-21T03:42:26;4.80;;;2.60;;
3427;SDS011;1727;42.624;23.406;2022-11-21T03:44:53;4.47;;;2.00;;
3427;SDS011;1727;42.624;23.406;2022-11-21T03:47:20;2.73;;;1.83;;
3427;SDS011;1727;42.624;23.406;2022-11-21T03:49:48;5.77;;;2.07;;
3427;SDS011;1727;42.624;23.406;2022-11-21T03:52:16;2.73;;;1.53;;
3427;SDS011;1727;42.624;23.406;2022-11-21T03:54:43;7.53;;;2.60;;
3427;SDS011;1727;42.624;23.406;2022-11-21T03:57:10;2.60;;;1.63;;
3427;SDS011;1727;42.624;23.406;2022-11-21T03:59:37;8.87;;;2.63;;
3427;SDS011;1727;42.624;23.406;2022-11-21T04:02:04;3.77;;;1.97;;
3427;SDS011;1727;42.624;23.406;2022-11-21T04:04:30;7.30;;;2.20;;
3427;SDS011;1727;42.624;23.406;2022-11-21T04:06:57;10.23;;;2.40;;
3427;SDS011;1727;42.624;23.406;2022-11-21T04:09:25;2.77;;;1.67;;
3427;SDS011;1727;42.624;23.406;2022-11-21T04:11:52;7.83;;;2.47;;
3427;SDS011;1727;42.624;23.406;2022-11-21T04:14:19;3.90;;;2.13;;
3427;SDS011;1727;42.624;23.406;2022-11-21T04:16:46;4.77;;;2.40;;
3427;SDS011;1727;42.624;23.406;2022-11-21T04:19:13;4.43;;;2.13;;
3427;SDS011;1727;42.624;23.406;2022-11-21T04:21:39;5.60;;;2.10;;
3427;SDS011;1727;42.624;23.406;2022-11-21T04:24:06;3.93;;;2.00;;
3427;SDS011;1727;42.624;23.406;2022-11-21T04:26:35;5.43;;;2.30;;
3427;SDS011;1727;42.624;23.406;2022-11-21T04:29:02;3.40;;;2.97;;
3427;SDS011;1727;42.624;23.406;2022-11-21T04:31:28;4.67;;;2.47;;
3427;SDS011;1727;42.624;23.406;2022-11-21T04:33:55;3.90;;;2.63;;
3427;SDS011;1727;42.624;23.406;2022-11-21T04:36:22;4.40;;;2.87;;
3427;SDS011;1727;42.624;23.406;2022-11-21T04:38:49;4.20;;;2.13;;
3427;SDS011;1727;42.624;23.406;2022-11-21T04:41:15;9.13;;;2.23;;
3427;SDS011;1727;42.624;23.406;2022-11-21T04:43:44;5.73;;;2.60;;
3427;SDS011;1727;42.624;23.406;2022-11-21T04:46:10;5.23;;;2.00;;
3427;SDS011;1727;42.624;23.406;2022-11-21T04:48:37;3.17;;;1.63;;
3427;SDS011;1727;42.624;23.406;2022-11-21T04:51:04;4.30;;;2.17;;
3427;SDS011;1727;42.624;23.406;2022-11-21T04:53:31;4.13;;;2.43;;
3427;SDS011;1727;42.624;23.406;2022-11-21T04:55:58;6.17;;;3.00;;
3427;SDS011;1727;42.624;23.406;2022-11-21T04:58:25;4.07;;;2.47;;
3427;SDS011;1727;42.624;23.406;2022-11-21T05:00:53;7.07;;;1.80;;
3427;SDS011;1727;42.624;23.406;2022-11-21T05:03:20;3.33;;;2.70;;
3427;SDS011;1727;42.624;23.406;2022-11-21T05:05:47;3.47;;;2.83;;
3427;SDS011;1727;42.624;23.406;2022-11-21T05:08:14;5.60;;;2.83;;
3427;SDS011;1727;42.624;23.406;2022-11-21T05:10:41;4.23;;;2.90;;
3427;SDS011;1727;42.624;23.406;2022-11-21T05:13:26;5.07;;;3.37;;
3427;SDS011;1727;42.624;23.406;2022-11-21T05:15:56;5.40;;;2.77;;
3427;SDS011;1727;42.624;23.406;2022-11-21T05:18:23;6.03;;;2.10;;
3427;SDS011;1727;42.624;23.406;2022-11-21T05:20:50;6.23;;;2.20;;
3427;SDS011;1727;42.624;23.406;2022-11-21T05:23:17;2.80;;;1.60;;
3427;SDS011;1727;42.624;23.406;2022-11-21T05:25:44;5.70;;;2.37;;
3427;SDS011;1727;42.624;23.406;2022-11-21T05:28:11;9.23;;;2.57;;
3427;SDS011;1727;42.624;23.406;2022-11-21T05:30:38;3.37;;;3.10;;
3427;SDS011;1727;42.624;23.406;2022-11-21T05:33:06;3.43;;;3.10;;
3427;SDS011;1727;42.624;23.406;2022-11-21T05:35:33;6.87;;;4.30;;
3427;SDS011;1727;42.624;23.406;2022-11-21T05:38:00;3.73;;;3.13;;
3427;SDS011;1727;42.624;23.406;2022-11-21T05:40:28;6.60;;;3.50;;
3427;SDS011;1727;42.624;23.406;2022-11-21T05:42:54;5.03;;;3.23;;
3427;SDS011;1727;42.624;23.406;2022-11-21T05:45:38;3.10;;;2.80;;
3427;SDS011;1727;42.624;23.406;2022-11-21T05:48:07;8.00;;;4.00;;
3427;SDS011;1727;42.624;23.406;2022-11-21T05:50:34;6.70;;;2.47;;
3427;SDS011;1727;42.624;23.406;2022-11-21T05:53:01;3.90;;;2.80;;
3427;SDS011;1727;42.624;23.406;2022-11-21T05:55:29;3.90;;;3.50;;
3427;SDS011;1727;42.624;23.406;2022-11-21T05:57:59;5.53;;;3.80;;
3427;SDS011;1727;42.624;23.406;2022-11-21T06:00:29;3.87;;;3.47;;
3427;SDS011;1727;42.624;23.406;2022-11-21T06:03:02;3.87;;;3.53;;
3427;SDS011;1727;42.624;23.406;2022-11-21T06:05:52;4.43;;;4.03;;
3427;SDS011;1727;42.624;23.406;2022-11-21T06:08:23;7.93;;;5.07;;
3427;SDS011;1727;42.624;23.406;2022-11-21T06:10:50;6.73;;;4.47;;
3427;SDS011;1727;42.624;23.406;2022-11-21T06:13:17;4.83;;;3.80;;
3427;SDS011;1727;42.624;23.406;2022-11-21T06:15:50;5.40;;;3.60;;
3427;SDS011;1727;42.624;23.406;2022-11-21T06:18:19;5.23;;;3.33;;
3427;SDS011;1727;42.624;23.406;2022-11-21T06:20:46;4.07;;;2.73;;
3427;SDS011;1727;42.624;23.406;2022-11-21T06:23:13;9.90;;;5.20;;
3427;SDS011;1727;42.624;23.406;2022-11-21T06:25:40;5.40;;;4.33;;
3427;SDS011;1727;42.624;23.406;2022-11-21T06:28:07;4.80;;;3.73;;
3427;SDS011;1727;42.624;23.406;2022-11-21T06:40:40;9.50;;;4.87;;
3427;SDS011;1727;42.624;23.406;2022-11-21T06:43:07;5.77;;;4.33;;
3427;SDS011;1727;42.624;23.406;2022-11-21T06:45:34;11.10;;;3.77;;
3427;SDS011;1727;42.624;23.406;2022-11-21T06:48:01;4.40;;;3.20;;
3427;SDS011;1727;42.624;23.406;2022-11-21T06:50:28;5.00;;;3.05;;
3427;SDS011;1727;42.624;23.406;2022-11-21T06:52:56;5.77;;;4.23;;
3427;SDS011;1727;42.624;23.406;2022-11-21T06:55:23;2.70;;;2.50;;
3427;SDS011;1727;42.624;23.406;2022-11-21T06:57:55;4.00;;;3.60;;
3427;SDS011;1727;42.624;23.406;2022-11-21T07:00:22;4.67;;;4.27;;
3427;SDS011;1727;42.624;23.406;2022-11-21T07:02:50;3.53;;;3.23;;
3427;SDS011;1727;42.624;23.406;2022-11-21T07:05:16;8.67;;;6.53;;
3427;SDS011;1727;42.624;23.406;2022-11-21T07:07:43;3.60;;;3.23;;
3427;SDS011;1727;42.624;23.406;2022-11-21T07:10:19;3.27;;;2.97;;
3427;SDS011;1727;42.624;23.406;2022-11-21T07:12:46;3.30;;;3.00;;
3427;SDS011;1727;42.624;23.406;2022-11-21T07:15:32;2.83;;;2.57;;
3427;SDS011;1727;42.624;23.406;2022-11-21T07:18:00;4.70;;;3.60;;
3427;SDS011;1727;42.624;23.406;2022-11-21T07:20:27;2.37;;;2.10;;
3427;SDS011;1727;42.624;23.406;2022-11-21T07:22:54;2.33;;;2.13;;
3427;SDS011;1727;42.624;23.406;2022-11-21T07:25:21;2.80;;;2.57;;
3427;SDS011;1727;42.624;23.406;2022-11-21T07:27:47;2.20;;;2.00;;
3427;SDS011;1727;42.624;23.406;2022-11-21T07:30:14;2.33;;;1.97;;
3427;SDS011;1727;42.624;23.406;2022-11-21T07:32:43;5.40;;;4.90;;
3427;SDS011;1727;42.624;23.406;2022-11-21T07:35:09;3.27;;;3.07;;
3427;SDS011;1727;42.624;23.406;2022-11-21T07:37:37;4.40;;;3.63;;
3427;SDS011;1727;42.624;23.406;2022-11-21T07:40:05;6.13;;;3.77;;
3427;SDS011;1727;42.624;23.406;2022-11-21T07:42:32;5.40;;;4.23;;
3427;SDS011;1727;42.624;23.406;2022-11-21T07:44:59;3.70;;;3.17;;
3427;SDS011;1727;42.624;23.406;2022-11-21T07:47:26;2.83;;;2.30;;
3427;SDS011;1727;42.624;23.406;2022-11-21T07:49:54;3.23;;;2.50;;
3427;SDS011;1727;42.624;23.406;2022-11-21T07:52:21;2.50;;;2.30;;
3427;SDS011;1727;42.624;23.406;2022-11-21T07:54:49;4.13;;;3.30;;
3427;SDS011;1727;42.624;23.406;2022-11-21T07:57:16;2.90;;;1.97;;
3427;SDS011;1727;42.624;23.406;2022-11-21T07:59:43;2.50;;;2.30;;
3427;SDS011;1727;42.624;23.406;2022-11-21T08:02:13;2.73;;;2.27;;
3427;SDS011;1727;42.624;23.406;2022-11-21T08:04:43;5.70;;;4.93;;
3427;SDS011;1727;42.624;23.406;2022-11-21T08:07:11;5.70;;;3.83;;
3427;SDS011;1727;42.624;23.406;2022-11-21T08:09:38;3.20;;;2.70;;
3427;SDS011;1727;42.624;23.406;2022-11-21T08:12:05;7.47;;;3.70;;
3427;SDS011;1727;42.624;23.406;2022-11-21T08:14:32;5.60;;;4.20;;
3427;SDS011;1727;42.624;23.406;2022-11-21T08:16:59;9.03;;;6.40;;
3427;SDS011;1727;42.624;23.406;2022-11-21T08:19:27;5.43;;;4.97;;
3427;SDS011;1727;42.624;23.406;2022-11-21T08:21:54;4.17;;;3.83;;
3427;SDS011;1727;42.624;23.406;2022-11-21T08:24:23;4.97;;;4.40;;
3427;SDS011;1727;42.624;23.406;2022-11-21T08:26:50;4.40;;;3.90;;
3427;SDS011;1727;42.624;23.406;2022-11-21T08:29:17;5.10;;;3.40;;
3427;SDS011;1727;42.624;23.406;2022-11-21T08:31:44;2.87;;;2.00;;
3427;SDS011;1727;42.624;23.406;2022-11-21T08:34:11;5.87;;;4.20;;
3427;SDS011;1727;42.624;23.406;2022-11-21T08:36:38;9.77;;;4.23;;
3427;SDS011;1727;42.624;23.406;2022-11-21T08:39:05;3.33;;;3.00;;
3427;SDS011;1727;42.624;23.406;2022-11-21T08:41:33;9.80;;;5.40;;
3427;SDS011;1727;42.624;23.406;2022-11-21T08:44:17;10.60;;;4.50;;
3427;SDS011;1727;42.624;23.406;2022-11-21T08:46:44;13.43;;;5.33;;
3427;SDS011;1727;42.624;23.406;2022-11-21T08:49:11;8.53;;;5.50;;
3427;SDS011;1727;42.624;23.406;2022-11-21T08:51:37;6.20;;;4.87;;
3427;SDS011;1727;42.624;23.406;2022-11-21T08:54:05;10.33;;;6.77;;
3427;SDS011;1727;42.624;23.406;2022-11-21T08:56:34;5.20;;;4.17;;
3427;SDS011;1727;42.624;23.406;2022-11-21T08:59:01;7.63;;;4.67;;
3427;SDS011;1727;42.624;23.406;2022-11-21T09:01:28;5.50;;;4.50;;
3427;SDS011;1727;42.624;23.406;2022-11-21T09:03:55;4.20;;;3.47;;
3427;SDS011;1727;42.624;23.406;2022-11-21T09:06:22;7.13;;;4.60;;
3427;SDS011;1727;42.624;23.406;2022-11-21T09:08:48;5.00;;;3.57;;
3427;SDS011;1727;42.624;23.406;2022-11-21T09:11:15;3.73;;;3.23;;
3427;SDS011;1727;42.624;23.406;2022-11-21T09:13:43;4.87;;;3.83;;
3427;SDS011;1727;42.624;23.406;2022-11-21T09:16:31;2.90;;;2.70;;
3427;SDS011;1727;42.624;23.406;2022-11-21T09:19:15;2.80;;;2.60;;
3427;SDS011;1727;42.624;23.406;2022-11-21T09:21:42;3.73;;;3.43;;
3427;SDS011;1727;42.624;23.406;2022-11-21T09:24:08;5.40;;;3.83;;
3427;SDS011;1727;42.624;23.406;2022-11-21T09:26:35;7.30;;;3.43;;
3427;SDS011;1727;42.624;23.406;2022-11-21T09:29:03;3.80;;;3.50;;
3427;SDS011;1727;42.624;23.406;2022-11-21T09:31:30;3.67;;;2.80;;
3427;SDS011;1727;42.624;23.406;2022-11-21T09:33:57;4.07;;;2.70;;
3427;SDS011;1727;42.624;23.406;2022-11-21T09:36:24;3.10;;;2.80;;
3427;SDS011;1727;42.624;23.406;2022-11-21T09:38:51;2.93;;;2.73;;
3427;SDS011;1727;42.624;23.406;2022-11-21T09:41:21;3.60;;;3.30;;
3427;SDS011;1727;42.624;23.406;2022-11-21T09:44:17;3.27;;;3.00;;
3427;SDS011;1727;42.624;23.406;2022-11-21T09:46:58;3.83;;;2.87;;
3427;SDS011;1727;42.624;23.406;2022-11-21T09:49:29;4.37;;;3.23;;
3427;SDS011;1727;42.624;23.406;2022-11-21T09:52:03;8.23;;;4.27;;
3427;SDS011;1727;42.624;23.406;2022-11-21T09:54:30;6.60;;;3.10;;
3427;SDS011;1727;42.624;23.406;2022-11-21T09:57:00;3.20;;;2.90;;
3427;SDS011;1727;42.624;23.406;2022-11-21T09:59:31;5.00;;;4.13;;
3427;SDS011;1727;42.624;23.406;2022-11-21T10:02:00;5.93;;;3.07;;
3427;SDS011;1727;42.624;23.406;2022-11-21T10:04:27;2.40;;;2.20;;
3427;SDS011;1727;42.624;23.406;2022-11-21T10:06:57;5.10;;;4.63;;
3427;SDS011;1727;42.624;23.406;2022-11-21T10:09:31;5.63;;;5.13;;
3427;SDS011;1727;42.624;23.406;2022-11-21T10:12:10;6.23;;;5.40;;
3427;SDS011;1727;42.624;23.406;2022-11-21T10:15:09;7.13;;;4.50;;
3427;SDS011;1727;42.624;23.406;2022-11-21T10:17:51;5.27;;;4.80;;
3427;SDS011;1727;42.624;23.406;2022-11-21T10:20:48;6.30;;;4.67;;
3427;SDS011;1727;42.624;23.406;2022-11-21T10:23:27;4.90;;;4.43;;
3427;SDS011;1727;42.624;23.406;2022-11-21T10:26:12;5.70;;;5.20;;
3427;SDS011;1727;42.624;23.406;2022-11-21T10:28:43;4.90;;;3.60;;
3427;SDS011;1727;42.624;23.406;2022-11-21T10:31:17;6.63;;;5.70;;
3427;SDS011;1727;42.624;23.406;2022-11-21T10:33:45;6.73;;;5.27;;
3427;SDS011;1727;42.624;23.406;2022-11-21T10:36:15;10.27;;;7.03;;
3427;SDS011;1727;42.624;23.406;2022-11-21T10:38:48;24.83;;;17.90;;
3427;SDS011;1727;42.624;23.406;2022-11-21T10:41:18;17.90;;;10.07;;
3427;SDS011;1727;42.624;23.406;2022-11-21T10:43:55;12.27;;;8.40;;
3427;SDS011;1727;42.624;23.406;2022-11-21T10:46:54;7.93;;;5.80;;
3427;SDS011;1727;42.624;23.406;2022-11-21T10:49:21;9.47;;;5.20;;
3427;SDS011;1727;42.624;23.406;2022-11-21T10:51:51;10.13;;;6.63;;
3427;SDS011;1727;42.624;23.406;2022-11-21T10:54:25;4.70;;;4.30;;
3427;SDS011;1727;42.624;23.406;2022-11-21T10:56:58;7.27;;;6.67;;
3427;SDS011;1727;42.624;23.406;2022-11-21T10:59:31;39.40;;;24.30;;
3427;SDS011;1727;42.624;23.406;2022-11-21T11:01:59;28.90;;;18.60;;
3427;SDS011;1727;42.624;23.406;2022-11-21T11:04:28;7.80;;;6.33;;
3427;SDS011;1727;42.624;23.406;2022-11-21T11:06:55;5.43;;;4.93;;
3427;SDS011;1727;42.624;23.406;2022-11-21T11:09:25;6.83;;;5.97;;
3427;SDS011;1727;42.624;23.406;2022-11-21T11:15:11;6.37;;;5.07;;
3427;SDS011;1727;42.624;23.406;2022-11-21T11:17:44;7.27;;;5.77;;
3427;SDS011;1727;42.624;23.406;2022-11-21T11:20:27;17.20;;;7.83;;
3427;SDS011;1727;42.624;23.406;2022-11-21T11:22:57;5.80;;;4.93;;
3427;SDS011;1727;42.624;23.406;2022-11-21T11:25:24;5.27;;;4.77;;
3427;SDS011;1727;42.624;23.406;2022-11-21T11:27:51;5.37;;;4.87;;
3427;SDS011;1727;42.624;23.406;2022-11-21T11:30:20;4.93;;;4.50;;
3427;SDS011;1727;42.624;23.406;2022-11-21T11:32:48;11.70;;;7.70;;
3427;SDS011;1727;42.624;23.406;2022-11-21T11:35:20;9.33;;;8.47;;
3427;SDS011;1727;42.624;23.406;2022-11-21T11:37:51;5.90;;;5.20;;
3427;SDS011;1727;42.624;23.406;2022-11-21T11:40:27;5.70;;;5.10;;
3427;SDS011;1727;42.624;23.406;2022-11-21T11:43:01;6.73;;;4.47;;
3427;SDS011;1727;42.624;23.406;2022-11-21T11:46:07;9.73;;;5.90;;
3427;SDS011;1727;42.624;23.406;2022-11-21T11:49:03;5.23;;;4.80;;
3427;SDS011;1727;42.624;23.406;2022-11-21T11:51:36;7.60;;;6.20;;
3427;SDS011;1727;42.624;23.406;2022-11-21T11:54:07;6.50;;;5.83;;
3427;SDS011;1727;42.624;23.406;2022-11-21T11:56:38;5.17;;;4.67;;
3427;SDS011;1727;42.624;23.406;2022-11-21T11:59:10;5.67;;;5.17;;
3427;SDS011;1727;42.624;23.406;2022-11-21T12:01:42;5.10;;;4.63;;
3427;SDS011;1727;42.624;23.406;2022-11-21T12:04:15;5.50;;;5.00;;
3427;SDS011;1727;42.624;23.406;2022-11-21T12:06:45;6.77;;;5.90;;
3427;SDS011;1727;42.624;23.406;2022-11-21T12:09:19;10.80;;;7.03;;
3427;SDS011;1727;42.624;23.406;2022-11-21T12:11:54;7.93;;;6.20;;
3427;SDS011;1727;42.624;23.406;2022-11-21T12:14:40;5.73;;;5.10;;
3427;SDS011;1727;42.624;23.406;2022-11-21T12:17:33;4.83;;;4.30;;
3427;SDS011;1727;42.624;23.406;2022-11-21T12:20:12;6.33;;;5.03;;
3427;SDS011;1727;42.624;23.406;2022-11-21T12:22:43;6.17;;;4.80;;
3427;SDS011;1727;42.624;23.406;2022-11-21T12:25:11;6.93;;;5.13;;
3427;SDS011;1727;42.624;23.406;2022-11-21T12:27:39;4.83;;;4.30;;
3427;SDS011;1727;42.624;23.406;2022-11-21T12:33:04;4.30;;;3.90;;
3427;SDS011;1727;42.624;23.406;2022-11-21T12:35:42;5.60;;;3.73;;
3427;SDS011;1727;42.624;23.406;2022-11-21T12:38:42;4.33;;;4.00;;
3427;SDS011;1727;42.624;23.406;2022-11-21T12:41:18;8.33;;;4.57;;
3427;SDS011;1727;42.624;23.406;2022-11-21T12:44:12;4.50;;;3.40;;
3427;SDS011;1727;42.624;23.406;2022-11-21T12:46:51;4.30;;;3.90;;
3427;SDS011;1727;42.624;23.406;2022-11-21T12:49:33;6.10;;;5.37;;
3427;SDS011;1727;42.624;23.406;2022-11-21T12:52:29;4.73;;;4.23;;
3427;SDS011;1727;42.624;23.406;2022-11-21T12:58:13;8.83;;;3.90;;
3427;SDS011;1727;42.624;23.406;2022-11-21T13:00:52;4.80;;;4.30;;
3427;SDS011;1727;42.624;23.406;2022-11-21T13:03:50;4.80;;;4.40;;
3427;SDS011;1727;42.624;23.406;2022-11-21T13:06:23;4.90;;;4.27;;
3427;SDS011;1727;42.624;23.406;2022-11-21T13:08:54;4.37;;;3.97;;
3427;SDS011;1727;42.624;23.406;2022-11-21T13:11:29;4.03;;;3.73;;
3427;SDS011;1727;42.624;23.406;2022-11-21T13:14:24;4.00;;;3.70;;
3427;SDS011;1727;42.624;23.406;2022-11-21T13:17:03;5.30;;;4.77;;
3427;SDS011;1727;42.624;23.406;2022-11-21T13:19:41;11.30;;;8.03;;
3427;SDS011;1727;42.624;23.406;2022-11-21T13:33:58;12.20;;;6.70;;
3427;SDS011;1727;42.624;23.406;2022-11-21T13:36:35;20.10;;;14.87;;
3427;SDS011;1727;42.624;23.406;2022-11-21T13:42:07;13.10;;;9.43;;
3427;SDS011;1727;42.624;23.406;2022-11-21T13:44:52;6.17;;;5.30;;
3427;SDS011;1727;42.624;23.406;2022-11-21T13:53:28;7.80;;;7.07;;
3427;SDS011;1727;42.624;23.406;2022-11-21T13:56:08;9.80;;;8.83;;
3427;SDS011;1727;42.624;23.406;2022-11-21T13:58:52;12.10;;;9.73;;
3427;SDS011;1727;42.624;23.406;2022-11-21T14:01:38;9.83;;;6.97;;
3427;SDS011;1727;42.624;23.406;2022-11-21T14:04:28;9.70;;;7.70;;
3427;SDS011;1727;42.624;23.406;2022-11-21T14:07:20;8.47;;;7.10;;
3427;SDS011;1727;42.624;23.406;2022-11-21T14:09:49;10.90;;;7.43;;
3427;SDS011;1727;42.624;23.406;2022-11-21T14:12:20;14.17;;;10.67;;
3427;SDS011;1727;42.624;23.406;2022-11-21T14:14:52;10.30;;;9.27;;
3427;SDS011;1727;42.624;23.406;2022-11-21T14:17:38;12.00;;;10.70;;
3427;SDS011;1727;42.624;23.406;2022-11-21T14:20:13;13.20;;;11.00;;
3427;SDS011;1727;42.624;23.406;2022-11-21T14:22:45;14.50;;;9.40;;
3427;SDS011;1727;42.624;23.406;2022-11-21T14:25:19;14.87;;;11.03;;
3427;SDS011;1727;42.624;23.406;2022-11-21T14:27:50;13.87;;;8.13;;
3427;SDS011;1727;42.624;23.406;2022-11-21T14:30:34;11.07;;;9.23;;
3427;SDS011;1727;42.624;23.406;2022-11-21T14:33:24;10.53;;;8.73;;
3427;SDS011;1727;42.624;23.406;2022-11-21T14:35:54;12.07;;;9.57;;
3427;SDS011;1727;42.624;23.406;2022-11-21T14:38:23;8.40;;;7.10;;
3427;SDS011;1727;42.624;23.406;2022-11-21T14:44:00;11.20;;;9.60;;
3427;SDS011;1727;42.624;23.406;2022-11-21T14:46:33;11.33;;;10.13;;
3427;SDS011;1727;42.624;23.406;2022-11-21T14:49:17;9.90;;;8.90;;
3427;SDS011;1727;42.624;23.406;2022-11-21T14:51:47;10.27;;;9.20;;
3427;SDS011;1727;42.624;23.406;2022-11-21T14:54:16;8.10;;;7.37;;
3427;SDS011;1727;42.624;23.406;2022-11-21T14:56:45;10.87;;;8.40;;
3427;SDS011;1727;42.624;23.406;2022-11-21T14:59:16;10.80;;;8.60;;
3427;SDS011;1727;42.624;23.406;2022-11-21T15:01:56;15.90;;;11.70;;
3427;SDS011;1727;42.624;23.406;2022-11-21T15:04:32;13.87;;;11.10;;
3427;SDS011;1727;42.624;23.406;2022-11-21T15:07:00;17.47;;;10.80;;
3427;SDS011;1727;42.624;23.406;2022-11-21T15:09:28;16.77;;;12.50;;
3427;SDS011;1727;42.624;23.406;2022-11-21T15:11:58;12.17;;;9.90;;
3427;SDS011;1727;42.624;23.406;2022-11-21T15:14:28;16.80;;;10.73;;
3427;SDS011;1727;42.624;23.406;2022-11-21T15:17:01;12.13;;;9.17;;
3427;SDS011;1727;42.624;23.406;2022-11-21T15:19:32;20.10;;;10.23;;
3427;SDS011;1727;42.624;23.406;2022-11-21T15:22:00;12.60;;;9.20;;
3427;SDS011;1727;42.624;23.406;2022-11-21T15:24:30;10.90;;;8.60;;
3427;SDS011;1727;42.624;23.406;2022-11-21T15:27:21;12.17;;;9.20;;
3427;SDS011;1727;42.624;23.406;2022-11-21T15:33:02;10.67;;;7.90;;
3427;SDS011;1727;42.624;23.406;2022-11-21T15:35:43;18.40;;;11.00;;
3427;SDS011;1727;42.624;23.406;2022-11-21T15:38:16;15.43;;;9.60;;
3427;SDS011;1727;42.624;23.406;2022-11-21T15:40:59;10.70;;;9.27;;
3427;SDS011;1727;42.624;23.406;2022-11-21T15:43:49;13.10;;;7.87;;
3427;SDS011;1727;42.624;23.406;2022-11-21T15:46:18;11.40;;;9.23;;
3427;SDS011;1727;42.624;23.406;2022-11-21T15:48:48;24.63;;;14.63;;
3427;SDS011;1727;42.624;23.406;2022-11-21T15:51:17;26.00;;;15.37;;
3427;SDS011;1727;42.624;23.406;2022-11-21T15:53:45;26.80;;;15.60;;
3427;SDS011;1727;42.624;23.406;2022-11-21T15:56:12;24.10;;;14.57;;
3427;SDS011;1727;42.624;23.406;2022-11-21T15:58:40;20.23;;;14.13;;
3427;SDS011;1727;42.624;23.406;2022-11-21T16:01:14;27.37;;;17.13;;
3427;SDS011;1727;42.624;23.406;2022-11-21T16:03:43;22.40;;;16.07;;
3427;SDS011;1727;42.624;23.406;2022-11-21T16:06:12;23.47;;;13.30;;